3 – eServices

Baggage tracing
Cargo tracing
Weather
  • METAR

    EFMA 280320Z AUTO 32013G23KT 290V350 CAVOK 07/00 Q1021

    EFTU 280320Z AUTO 31008KT 270V350 9999 FEW042 05/00 Q1017

    EFHK 280320Z 28008KT 9999 SCT038 02/M00 Q1015 NOSIG

    ESSA 280320Z 27008KT CAVOK 01/M02 Q1024 R01L/09//95 R08/09//95 R01R/15//95 NOSIG

    ESSB 280320Z AUTO 27007KT 9999 NCD 03/M00 Q1024

  • TAF n/a

Flightradar24